sensor_id;sensor_type;location;lat;lon;timestamp;temperature;humidity
15341;DHT22;7770;52.158;5.372;2023-04-24T00:00:25;9.60;99.90
15341;DHT22;7770;52.158;5.372;2023-04-24T00:03:12;9.70;99.90
15341;DHT22;7770;52.158;5.372;2023-04-24T00:05:58;9.60;99.90
15341;DHT22;7770;52.158;5.372;2023-04-24T00:08:44;9.60;99.90
15341;DHT22;7770;52.158;5.372;2023-04-24T00:11:30;9.60;99.90
15341;DHT22;7770;52.158;5.372;2023-04-24T00:14:16;9.60;99.90
15341;DHT22;7770;52.158;5.372;2023-04-24T00:17:02;9.60;99.90
15341;DHT22;7770;52.158;5.372;2023-04-24T00:19:49;9.60;99.90
15341;DHT22;7770;52.158;5.372;2023-04-24T00:22:36;9.60;99.90
15341;DHT22;7770;52.158;5.372;2023-04-24T00:25:22;9.50;99.90
15341;DHT22;7770;52.158;5.372;2023-04-24T00:28:08;9.50;99.90
15341;DHT22;7770;52.158;5.372;2023-04-24T00:30:54;9.50;99.90
15341;DHT22;7770;52.158;5.372;2023-04-24T00:33:41;9.50;99.90
15341;DHT22;7770;52.158;5.372;2023-04-24T00:36:27;9.50;99.90
15341;DHT22;7770;52.158;5.372;2023-04-24T00:39:13;9.50;99.90
15341;DHT22;7770;52.158;5.372;2023-04-24T00:41:59;9.40;99.90
15341;DHT22;7770;52.158;5.372;2023-04-24T00:44:45;9.40;99.90
15341;DHT22;7770;52.158;5.372;2023-04-24T00:47:32;9.30;99.90
15341;DHT22;7770;52.158;5.372;2023-04-24T00:50:20;9.30;99.90
15341;DHT22;7770;52.158;5.372;2023-04-24T00:53:06;9.40;99.90
15341;DHT22;7770;52.158;5.372;2023-04-24T00:55:53;9.40;99.90
15341;DHT22;7770;52.158;5.372;2023-04-24T00:58:39;9.30;99.90
15341;DHT22;7770;52.158;5.372;2023-04-24T01:01:27;9.40;99.90
15341;DHT22;7770;52.158;5.372;2023-04-24T01:04:14;9.40;99.90
15341;DHT22;7770;52.158;5.372;2023-04-24T01:07:00;9.40;99.90
15341;DHT22;7770;52.158;5.372;2023-04-24T01:09:47;9.40;99.90
15341;DHT22;7770;52.158;5.372;2023-04-24T01:12:34;9.40;99.90
15341;DHT22;7770;52.158;5.372;2023-04-24T01:15:20;9.40;99.90
15341;DHT22;7770;52.158;5.372;2023-04-24T01:18:06;9.40;99.90
15341;DHT22;7770;52.158;5.372;2023-04-24T01:20:54;9.40;99.90
15341;DHT22;7770;52.158;5.372;2023-04-24T01:23:44;9.40;99.90
15341;DHT22;7770;52.158;5.372;2023-04-24T01:26:30;9.50;99.90
15341;DHT22;7770;52.158;5.372;2023-04-24T01:29:17;9.50;99.90
15341;DHT22;7770;52.158;5.372;2023-04-24T01:32:04;9.50;99.90
15341;DHT22;7770;52.158;5.372;2023-04-24T01:34:50;9.50;99.90
15341;DHT22;7770;52.158;5.372;2023-04-24T01:37:36;9.50;99.90
15341;DHT22;7770;52.158;5.372;2023-04-24T01:40:23;9.50;99.90
15341;DHT22;7770;52.158;5.372;2023-04-24T01:43:09;9.50;99.90
15341;DHT22;7770;52.158;5.372;2023-04-24T01:45:55;9.50;99.90
15341;DHT22;7770;52.158;5.372;2023-04-24T01:48:41;9.50;99.90
15341;DHT22;7770;52.158;5.372;2023-04-24T01:51:28;9.50;99.90
15341;DHT22;7770;52.158;5.372;2023-04-24T01:54:14;9.50;99.90
15341;DHT22;7770;52.158;5.372;2023-04-24T01:57:00;9.50;99.90
15341;DHT22;7770;52.158;5.372;2023-04-24T01:59:47;9.50;99.90
15341;DHT22;7770;52.158;5.372;2023-04-24T02:02:33;9.50;99.90
15341;DHT22;7770;52.158;5.372;2023-04-24T02:05:19;9.50;99.90
15341;DHT22;7770;52.158;5.372;2023-04-24T02:08:05;9.50;99.90
15341;DHT22;7770;52.158;5.372;2023-04-24T02:10:51;9.50;99.90
15341;DHT22;7770;52.158;5.372;2023-04-24T02:13:37;9.60;99.90
15341;DHT22;7770;52.158;5.372;2023-04-24T02:16:23;9.60;99.90
15341;DHT22;7770;52.158;5.372;2023-04-24T02:19:10;9.60;99.90
15341;DHT22;7770;52.158;5.372;2023-04-24T02:21:56;9.60;99.90
15341;DHT22;7770;52.158;5.372;2023-04-24T02:24:42;9.60;99.90
15341;DHT22;7770;52.158;5.372;2023-04-24T02:27:28;9.60;99.90
15341;DHT22;7770;52.158;5.372;2023-04-24T02:30:14;9.60;99.90
15341;DHT22;7770;52.158;5.372;2023-04-24T02:33:00;9.60;99.90
15341;DHT22;7770;52.158;5.372;2023-04-24T02:35:46;9.60;99.90
15341;DHT22;7770;52.158;5.372;2023-04-24T02:38:33;9.50;99.90
15341;DHT22;7770;52.158;5.372;2023-04-24T02:41:19;9.50;99.90
15341;DHT22;7770;52.158;5.372;2023-04-24T02:44:05;9.60;99.90
15341;DHT22;7770;52.158;5.372;2023-04-24T02:46:51;9.60;99.90
15341;DHT22;7770;52.158;5.372;2023-04-24T02:49:37;9.60;99.90
15341;DHT22;7770;52.158;5.372;2023-04-24T02:52:23;9.60;99.90
15341;DHT22;7770;52.158;5.372;2023-04-24T02:55:09;9.60;99.90
15341;DHT22;7770;52.158;5.372;2023-04-24T02:57:55;9.60;99.90
15341;DHT22;7770;52.158;5.372;2023-04-24T03:00:41;9.60;99.90
15341;DHT22;7770;52.158;5.372;2023-04-24T03:03:27;9.70;99.90
15341;DHT22;7770;52.158;5.372;2023-04-24T03:06:13;9.70;99.90
15341;DHT22;7770;52.158;5.372;2023-04-24T03:08:59;9.60;99.90
15341;DHT22;7770;52.158;5.372;2023-04-24T03:11:45;9.60;99.90
15341;DHT22;7770;52.158;5.372;2023-04-24T03:14:31;9.60;99.90
15341;DHT22;7770;52.158;5.372;2023-04-24T03:17:17;9.50;99.90
15341;DHT22;7770;52.158;5.372;2023-04-24T03:20:03;9.50;99.90
15341;DHT22;7770;52.158;5.372;2023-04-24T03:22:51;9.50;99.90
15341;DHT22;7770;52.158;5.372;2023-04-24T03:25:37;9.50;99.90
15341;DHT22;7770;52.158;5.372;2023-04-24T03:28:23;9.50;99.90
15341;DHT22;7770;52.158;5.372;2023-04-24T03:31:10;9.40;99.90
15341;DHT22;7770;52.158;5.372;2023-04-24T03:33:56;9.40;99.90
15341;DHT22;7770;52.158;5.372;2023-04-24T03:36:42;9.40;99.90
15341;DHT22;7770;52.158;5.372;2023-04-24T03:39:28;9.40;99.90
15341;DHT22;7770;52.158;5.372;2023-04-24T03:42:14;9.40;99.90
15341;DHT22;7770;52.158;5.372;2023-04-24T03:45:00;9.30;99.90
15341;DHT22;7770;52.158;5.372;2023-04-24T03:47:46;9.30;99.90
15341;DHT22;7770;52.158;5.372;2023-04-24T03:50:33;9.40;99.90
15341;DHT22;7770;52.158;5.372;2023-04-24T03:53:18;9.30;99.90
15341;DHT22;7770;52.158;5.372;2023-04-24T03:56:05;9.30;99.90
15341;DHT22;7770;52.158;5.372;2023-04-24T03:58:51;9.30;99.90
15341;DHT22;7770;52.158;5.372;2023-04-24T04:01:37;9.30;99.90
15341;DHT22;7770;52.158;5.372;2023-04-24T04:04:23;9.30;99.90
15341;DHT22;7770;52.158;5.372;2023-04-24T04:07:09;9.30;99.90
15341;DHT22;7770;52.158;5.372;2023-04-24T04:09:55;9.20;99.90
15341;DHT22;7770;52.158;5.372;2023-04-24T04:12:41;9.20;99.90
15341;DHT22;7770;52.158;5.372;2023-04-24T04:15:27;9.20;99.90
15341;DHT22;7770;52.158;5.372;2023-04-24T04:18:13;9.20;99.90
15341;DHT22;7770;52.158;5.372;2023-04-24T04:20:59;9.20;99.90
15341;DHT22;7770;52.158;5.372;2023-04-24T04:23:46;9.20;99.90
15341;DHT22;7770;52.158;5.372;2023-04-24T04:26:33;9.20;99.90
15341;DHT22;7770;52.158;5.372;2023-04-24T04:29:21;9.20;99.90
15341;DHT22;7770;52.158;5.372;2023-04-24T04:32:08;9.20;99.90
15341;DHT22;7770;52.158;5.372;2023-04-24T04:34:54;9.20;99.90
15341;DHT22;7770;52.158;5.372;2023-04-24T04:37:40;9.20;99.90
15341;DHT22;7770;52.158;5.372;2023-04-24T04:40:26;9.30;99.90
15341;DHT22;7770;52.158;5.372;2023-04-24T04:43:13;9.30;99.90
15341;DHT22;7770;52.158;5.372;2023-04-24T04:46:00;9.30;99.90
15341;DHT22;7770;52.158;5.372;2023-04-24T04:48:46;9.30;99.90
15341;DHT22;7770;52.158;5.372;2023-04-24T04:51:32;9.40;99.90
15341;DHT22;7770;52.158;5.372;2023-04-24T04:54:18;9.30;99.90
15341;DHT22;7770;52.158;5.372;2023-04-24T04:57:05;9.40;99.90
15341;DHT22;7770;52.158;5.372;2023-04-24T04:59:51;9.40;99.90
15341;DHT22;7770;52.158;5.372;2023-04-24T05:02:38;9.40;99.90
15341;DHT22;7770;52.158;5.372;2023-04-24T05:05:24;9.50;99.90
15341;DHT22;7770;52.158;5.372;2023-04-24T05:08:10;9.50;99.90
15341;DHT22;7770;52.158;5.372;2023-04-24T05:10:56;9.50;99.90
15341;DHT22;7770;52.158;5.372;2023-04-24T05:13:42;9.60;99.90
15341;DHT22;7770;52.158;5.372;2023-04-24T05:16:28;9.60;99.90
15341;DHT22;7770;52.158;5.372;2023-04-24T05:19:14;9.70;99.90
15341;DHT22;7770;52.158;5.372;2023-04-24T05:22:01;9.70;99.90
15341;DHT22;7770;52.158;5.372;2023-04-24T05:24:48;9.70;99.90
15341;DHT22;7770;52.158;5.372;2023-04-24T05:27:34;9.80;99.90
15341;DHT22;7770;52.158;5.372;2023-04-24T05:30:20;9.70;99.90
15341;DHT22;7770;52.158;5.372;2023-04-24T05:33:06;9.70;99.90
15341;DHT22;7770;52.158;5.372;2023-04-24T05:35:54;9.70;99.90
15341;DHT22;7770;52.158;5.372;2023-04-24T05:38:40;9.70;99.90
15341;DHT22;7770;52.158;5.372;2023-04-24T05:41:26;9.70;99.90
15341;DHT22;7770;52.158;5.372;2023-04-24T05:44:12;9.60;99.90
15341;DHT22;7770;52.158;5.372;2023-04-24T05:46:58;9.60;99.90
15341;DHT22;7770;52.158;5.372;2023-04-24T05:49:44;9.60;99.90
15341;DHT22;7770;52.158;5.372;2023-04-24T05:52:30;9.50;99.90
15341;DHT22;7770;52.158;5.372;2023-04-24T05:55:16;9.50;99.90
15341;DHT22;7770;52.158;5.372;2023-04-24T05:58:04;9.50;99.90
15341;DHT22;7770;52.158;5.372;2023-04-24T06:00:50;9.30;99.90
15341;DHT22;7770;52.158;5.372;2023-04-24T06:03:36;9.30;99.90
15341;DHT22;7770;52.158;5.372;2023-04-24T06:06:23;9.20;99.90
15341;DHT22;7770;52.158;5.372;2023-04-24T06:09:09;9.20;99.90
15341;DHT22;7770;52.158;5.372;2023-04-24T06:11:55;9.20;99.90
15341;DHT22;7770;52.158;5.372;2023-04-24T06:14:42;9.10;99.90
15341;DHT22;7770;52.158;5.372;2023-04-24T06:17:28;9.10;99.90
15341;DHT22;7770;52.158;5.372;2023-04-24T06:20:14;9.10;99.90
15341;DHT22;7770;52.158;5.372;2023-04-24T06:23:00;9.10;99.90
15341;DHT22;7770;52.158;5.372;2023-04-24T06:25:46;9.10;99.90
15341;DHT22;7770;52.158;5.372;2023-04-24T06:28:32;9.10;99.90
15341;DHT22;7770;52.158;5.372;2023-04-24T06:31:18;9.10;99.90
15341;DHT22;7770;52.158;5.372;2023-04-24T06:34:04;9.10;99.90
15341;DHT22;7770;52.158;5.372;2023-04-24T06:36:50;9.10;99.90
15341;DHT22;7770;52.158;5.372;2023-04-24T06:39:36;9.00;99.90
15341;DHT22;7770;52.158;5.372;2023-04-24T06:42:22;9.00;99.90
15341;DHT22;7770;52.158;5.372;2023-04-24T06:45:09;9.00;99.90
15341;DHT22;7770;52.158;5.372;2023-04-24T06:47:56;9.10;99.90
15341;DHT22;7770;52.158;5.372;2023-04-24T06:50:42;9.00;99.90
15341;DHT22;7770;52.158;5.372;2023-04-24T06:53:28;9.00;99.90
15341;DHT22;7770;52.158;5.372;2023-04-24T06:56:14;9.00;99.90
15341;DHT22;7770;52.158;5.372;2023-04-24T06:59:00;9.00;99.90
15341;DHT22;7770;52.158;5.372;2023-04-24T07:01:46;9.00;99.90
15341;DHT22;7770;52.158;5.372;2023-04-24T07:04:32;8.90;99.90
15341;DHT22;7770;52.158;5.372;2023-04-24T07:07:18;8.90;99.90
15341;DHT22;7770;52.158;5.372;2023-04-24T07:10:05;8.90;99.90
15341;DHT22;7770;52.158;5.372;2023-04-24T07:12:51;8.90;99.90
15341;DHT22;7770;52.158;5.372;2023-04-24T07:15:37;8.90;99.90
15341;DHT22;7770;52.158;5.372;2023-04-24T07:18:24;8.90;99.90
15341;DHT22;7770;52.158;5.372;2023-04-24T07:21:10;8.80;99.90
15341;DHT22;7770;52.158;5.372;2023-04-24T07:23:57;8.80;99.90
15341;DHT22;7770;52.158;5.372;2023-04-24T07:26:43;8.70;99.90
15341;DHT22;7770;52.158;5.372;2023-04-24T07:29:29;8.70;99.90
15341;DHT22;7770;52.158;5.372;2023-04-24T07:32:15;8.70;99.90
15341;DHT22;7770;52.158;5.372;2023-04-24T07:35:01;8.80;99.90
15341;DHT22;7770;52.158;5.372;2023-04-24T07:37:48;8.80;99.90
15341;DHT22;7770;52.158;5.372;2023-04-24T07:40:34;8.90;99.90
15341;DHT22;7770;52.158;5.372;2023-04-24T07:43:20;8.90;99.90
15341;DHT22;7770;52.158;5.372;2023-04-24T07:46:07;8.90;99.90
15341;DHT22;7770;52.158;5.372;2023-04-24T07:48:54;8.90;99.90
15341;DHT22;7770;52.158;5.372;2023-04-24T07:51:40;9.00;99.90
15341;DHT22;7770;52.158;5.372;2023-04-24T07:54:26;9.00;99.90
15341;DHT22;7770;52.158;5.372;2023-04-24T07:57:12;9.00;99.90
15341;DHT22;7770;52.158;5.372;2023-04-24T07:59:59;9.10;99.90
15341;DHT22;7770;52.158;5.372;2023-04-24T08:02:45;9.10;99.90
15341;DHT22;7770;52.158;5.372;2023-04-24T08:05:31;9.10;99.90
15341;DHT22;7770;52.158;5.372;2023-04-24T08:08:20;9.10;99.90
15341;DHT22;7770;52.158;5.372;2023-04-24T08:11:06;9.00;99.90
15341;DHT22;7770;52.158;5.372;2023-04-24T08:13:52;8.80;99.90
15341;DHT22;7770;52.158;5.372;2023-04-24T08:16:38;8.70;99.90
15341;DHT22;7770;52.158;5.372;2023-04-24T08:19:24;8.70;99.90
15341;DHT22;7770;52.158;5.372;2023-04-24T08:22:11;8.70;99.90
15341;DHT22;7770;52.158;5.372;2023-04-24T08:24:59;8.70;99.90
15341;DHT22;7770;52.158;5.372;2023-04-24T08:27:45;8.60;99.90
15341;DHT22;7770;52.158;5.372;2023-04-24T08:30:31;8.60;99.90
15341;DHT22;7770;52.158;5.372;2023-04-24T08:33:17;8.50;99.90
15341;DHT22;7770;52.158;5.372;2023-04-24T08:36:05;8.60;99.90
15341;DHT22;7770;52.158;5.372;2023-04-24T08:38:51;8.70;99.90
15341;DHT22;7770;52.158;5.372;2023-04-24T08:41:37;8.80;99.90
15341;DHT22;7770;52.158;5.372;2023-04-24T08:44:24;9.00;99.90
15341;DHT22;7770;52.158;5.372;2023-04-24T08:47:11;9.10;99.90
15341;DHT22;7770;52.158;5.372;2023-04-24T08:49:57;9.20;99.90
15341;DHT22;7770;52.158;5.372;2023-04-24T08:52:45;9.40;99.90
15341;DHT22;7770;52.158;5.372;2023-04-24T08:55:32;9.50;99.90
15341;DHT22;7770;52.158;5.372;2023-04-24T08:58:18;9.50;99.90
15341;DHT22;7770;52.158;5.372;2023-04-24T09:01:05;9.50;99.90
15341;DHT22;7770;52.158;5.372;2023-04-24T09:03:51;9.40;99.90
15341;DHT22;7770;52.158;5.372;2023-04-24T09:06:39;9.40;99.90
15341;DHT22;7770;52.158;5.372;2023-04-24T09:09:30;9.30;99.90
15341;DHT22;7770;52.158;5.372;2023-04-24T09:12:17;9.30;99.90
15341;DHT22;7770;52.158;5.372;2023-04-24T09:15:04;9.40;99.90
15341;DHT22;7770;52.158;5.372;2023-04-24T09:17:52;9.50;99.90
15341;DHT22;7770;52.158;5.372;2023-04-24T09:21:01;9.70;99.90
15341;DHT22;7770;52.158;5.372;2023-04-24T09:24:02;9.90;99.90
15341;DHT22;7770;52.158;5.372;2023-04-24T09:26:58;10.00;99.90
15341;DHT22;7770;52.158;5.372;2023-04-24T09:29:58;10.30;99.90
15341;DHT22;7770;52.158;5.372;2023-04-24T09:32:44;10.60;99.90
15341;DHT22;7770;52.158;5.372;2023-04-24T09:35:32;10.80;99.90
15341;DHT22;7770;52.158;5.372;2023-04-24T09:38:18;10.80;99.90
15341;DHT22;7770;52.158;5.372;2023-04-24T09:41:08;11.00;99.90
15341;DHT22;7770;52.158;5.372;2023-04-24T09:44:13;11.20;99.90
15341;DHT22;7770;52.158;5.372;2023-04-24T09:47:08;11.40;99.90
15341;DHT22;7770;52.158;5.372;2023-04-24T09:49:58;11.20;99.90
15341;DHT22;7770;52.158;5.372;2023-04-24T09:52:46;10.90;99.90
15341;DHT22;7770;52.158;5.372;2023-04-24T09:55:33;10.50;99.90
15341;DHT22;7770;52.158;5.372;2023-04-24T09:58:28;10.10;99.90
15341;DHT22;7770;52.158;5.372;2023-04-24T10:01:15;10.20;99.90
15341;DHT22;7770;52.158;5.372;2023-04-24T10:04:01;10.40;99.90
15341;DHT22;7770;52.158;5.372;2023-04-24T10:06:48;10.60;99.90
15341;DHT22;7770;52.158;5.372;2023-04-24T10:09:35;10.90;99.90
15341;DHT22;7770;52.158;5.372;2023-04-24T10:12:22;11.00;99.90
15341;DHT22;7770;52.158;5.372;2023-04-24T10:15:12;11.00;99.90
15341;DHT22;7770;52.158;5.372;2023-04-24T10:17:59;10.90;99.90
15341;DHT22;7770;52.158;5.372;2023-04-24T10:20:45;11.00;99.90
15341;DHT22;7770;52.158;5.372;2023-04-24T10:23:32;10.70;99.90
15341;DHT22;7770;52.158;5.372;2023-04-24T10:26:19;10.70;99.90
15341;DHT22;7770;52.158;5.372;2023-04-24T10:29:06;10.70;99.90
15341;DHT22;7770;52.158;5.372;2023-04-24T10:31:55;11.00;99.90
15341;DHT22;7770;52.158;5.372;2023-04-24T10:34:41;11.50;99.90
15341;DHT22;7770;52.158;5.372;2023-04-24T10:37:28;11.70;99.90
15341;DHT22;7770;52.158;5.372;2023-04-24T10:40:18;12.30;99.90
15341;DHT22;7770;52.158;5.372;2023-04-24T10:43:07;13.60;99.90
15341;DHT22;7770;52.158;5.372;2023-04-24T10:46:03;14.40;99.90
15341;DHT22;7770;52.158;5.372;2023-04-24T10:48:54;13.80;99.90
15341;DHT22;7770;52.158;5.372;2023-04-24T10:51:48;13.30;99.90
15341;DHT22;7770;52.158;5.372;2023-04-24T10:57:27;12.10;99.90
15341;DHT22;7770;52.158;5.372;2023-04-24T11:00:20;11.90;99.90
15341;DHT22;7770;52.158;5.372;2023-04-24T11:03:22;11.60;99.90
15341;DHT22;7770;52.158;5.372;2023-04-24T11:06:10;11.40;99.90
15341;DHT22;7770;52.158;5.372;2023-04-24T11:09:06;11.10;99.90
15341;DHT22;7770;52.158;5.372;2023-04-24T11:12:08;10.80;99.90
15341;DHT22;7770;52.158;5.372;2023-04-24T11:17:43;10.30;99.90
15341;DHT22;7770;52.158;5.372;2023-04-24T11:20:29;10.20;99.90
15341;DHT22;7770;52.158;5.372;2023-04-24T11:23:16;10.20;99.90
15341;DHT22;7770;52.158;5.372;2023-04-24T11:26:11;10.40;99.90
15341;DHT22;7770;52.158;5.372;2023-04-24T11:29:07;11.10;99.90
15341;DHT22;7770;52.158;5.372;2023-04-24T11:31:53;12.30;99.90
15341;DHT22;7770;52.158;5.372;2023-04-24T11:34:40;14.10;99.90
15341;DHT22;7770;52.158;5.372;2023-04-24T11:37:28;15.20;99.90
15341;DHT22;7770;52.158;5.372;2023-04-24T11:40:22;15.30;99.90
15341;DHT22;7770;52.158;5.372;2023-04-24T11:43:09;14.10;99.90
15341;DHT22;7770;52.158;5.372;2023-04-24T11:45:59;13.10;99.90
15341;DHT22;7770;52.158;5.372;2023-04-24T11:48:45;13.20;99.90
15341;DHT22;7770;52.158;5.372;2023-04-24T11:51:31;13.40;99.90
15341;DHT22;7770;52.158;5.372;2023-04-24T11:54:18;14.00;99.90
15341;DHT22;7770;52.158;5.372;2023-04-24T11:57:05;14.60;99.90
15341;DHT22;7770;52.158;5.372;2023-04-24T11:59:52;15.20;99.90
15341;DHT22;7770;52.158;5.372;2023-04-24T12:02:38;15.50;99.90
15341;DHT22;7770;52.158;5.372;2023-04-24T12:05:26;15.20;99.90
15341;DHT22;7770;52.158;5.372;2023-04-24T12:08:29;14.60;99.90
15341;DHT22;7770;52.158;5.372;2023-04-24T12:11:16;13.70;99.90
15341;DHT22;7770;52.158;5.372;2023-04-24T12:14:11;13.10;99.90
15341;DHT22;7770;52.158;5.372;2023-04-24T12:16:57;12.60;99.90
15341;DHT22;7770;52.158;5.372;2023-04-24T12:19:47;12.40;99.90
15341;DHT22;7770;52.158;5.372;2023-04-24T12:22:52;12.00;99.90
15341;DHT22;7770;52.158;5.372;2023-04-24T12:25:40;11.90;99.90
15341;DHT22;7770;52.158;5.372;2023-04-24T12:28:38;11.60;99.90
15341;DHT22;7770;52.158;5.372;2023-04-24T12:31:24;11.30;99.90
15341;DHT22;7770;52.158;5.372;2023-04-24T12:34:23;11.40;99.90
15341;DHT22;7770;52.158;5.372;2023-04-24T12:37:11;11.50;99.90
15341;DHT22;7770;52.158;5.372;2023-04-24T12:42:52;11.60;99.90
15341;DHT22;7770;52.158;5.372;2023-04-24T12:45:38;11.60;99.90
15341;DHT22;7770;52.158;5.372;2023-04-24T12:48:28;11.60;99.90
15341;DHT22;7770;52.158;5.372;2023-04-24T12:51:15;11.60;99.90
15341;DHT22;7770;52.158;5.372;2023-04-24T12:54:01;11.50;99.90
15341;DHT22;7770;52.158;5.372;2023-04-24T12:56:47;11.40;99.90
15341;DHT22;7770;52.158;5.372;2023-04-24T12:59:33;11.20;99.90
15341;DHT22;7770;52.158;5.372;2023-04-24T13:02:19;11.00;99.90
15341;DHT22;7770;52.158;5.372;2023-04-24T13:05:07;10.70;99.90
15341;DHT22;7770;52.158;5.372;2023-04-24T13:07:53;10.40;99.90
15341;DHT22;7770;52.158;5.372;2023-04-24T13:10:39;10.40;99.90
15341;DHT22;7770;52.158;5.372;2023-04-24T13:13:26;10.70;99.90
15341;DHT22;7770;52.158;5.372;2023-04-24T13:16:12;11.00;99.90
15341;DHT22;7770;52.158;5.372;2023-04-24T13:18:58;11.10;99.90
15341;DHT22;7770;52.158;5.372;2023-04-24T13:21:44;11.20;99.90
15341;DHT22;7770;52.158;5.372;2023-04-24T13:24:30;11.40;99.90
15341;DHT22;7770;52.158;5.372;2023-04-24T13:27:17;11.80;99.90
15341;DHT22;7770;52.158;5.372;2023-04-24T13:30:03;12.10;99.90
15341;DHT22;7770;52.158;5.372;2023-04-24T13:32:50;12.50;99.90
15341;DHT22;7770;52.158;5.372;2023-04-24T13:35:36;12.70;99.90
15341;DHT22;7770;52.158;5.372;2023-04-24T13:38:22;12.70;99.90
15341;DHT22;7770;52.158;5.372;2023-04-24T13:41:08;12.80;99.90
15341;DHT22;7770;52.158;5.372;2023-04-24T13:43:55;12.60;99.90
15341;DHT22;7770;52.158;5.372;2023-04-24T13:46:41;12.40;99.90
15341;DHT22;7770;52.158;5.372;2023-04-24T13:49:30;12.00;99.90
15341;DHT22;7770;52.158;5.372;2023-04-24T13:52:16;11.90;99.90
15341;DHT22;7770;52.158;5.372;2023-04-24T13:55:02;11.80;99.90
15341;DHT22;7770;52.158;5.372;2023-04-24T13:57:48;11.70;99.90
15341;DHT22;7770;52.158;5.372;2023-04-24T14:00:34;11.50;99.90
15341;DHT22;7770;52.158;5.372;2023-04-24T14:03:21;12.00;99.90
15341;DHT22;7770;52.158;5.372;2023-04-24T14:06:07;12.00;99.90
15341;DHT22;7770;52.158;5.372;2023-04-24T14:08:53;11.90;99.90
15341;DHT22;7770;52.158;5.372;2023-04-24T14:11:39;12.10;99.90
15341;DHT22;7770;52.158;5.372;2023-04-24T14:14:25;12.00;99.90
15341;DHT22;7770;52.158;5.372;2023-04-24T14:17:11;11.90;99.90
15341;DHT22;7770;52.158;5.372;2023-04-24T14:19:57;11.90;99.90
15341;DHT22;7770;52.158;5.372;2023-04-24T14:22:45;12.10;99.90
15341;DHT22;7770;52.158;5.372;2023-04-24T14:25:31;12.20;99.90
15341;DHT22;7770;52.158;5.372;2023-04-24T14:28:18;12.10;99.90
15341;DHT22;7770;52.158;5.372;2023-04-24T14:31:04;11.70;99.90
15341;DHT22;7770;52.158;5.372;2023-04-24T14:33:50;11.50;99.90
15341;DHT22;7770;52.158;5.372;2023-04-24T14:36:37;11.70;99.90
15341;DHT22;7770;52.158;5.372;2023-04-24T14:39:23;11.70;99.90
15341;DHT22;7770;52.158;5.372;2023-04-24T14:42:09;11.80;99.90
15341;DHT22;7770;52.158;5.372;2023-04-24T14:44:55;11.90;99.90
15341;DHT22;7770;52.158;5.372;2023-04-24T14:47:41;11.80;99.90
15341;DHT22;7770;52.158;5.372;2023-04-24T14:50:27;11.60;99.90
15341;DHT22;7770;52.158;5.372;2023-04-24T14:53:14;11.40;99.90
15341;DHT22;7770;52.158;5.372;2023-04-24T14:56:00;11.30;99.90
15341;DHT22;7770;52.158;5.372;2023-04-24T14:58:46;11.30;99.90
15341;DHT22;7770;52.158;5.372;2023-04-24T15:01:32;11.30;99.90
15341;DHT22;7770;52.158;5.372;2023-04-24T15:04:18;11.10;99.90
15341;DHT22;7770;52.158;5.372;2023-04-24T15:07:05;11.20;99.90
15341;DHT22;7770;52.158;5.372;2023-04-24T15:09:51;11.00;99.90
15341;DHT22;7770;52.158;5.372;2023-04-24T15:12:37;10.70;99.90
15341;DHT22;7770;52.158;5.372;2023-04-24T15:15:25;10.40;99.90
15341;DHT22;7770;52.158;5.372;2023-04-24T15:18:11;10.30;99.90
15341;DHT22;7770;52.158;5.372;2023-04-24T15:20:57;10.60;99.90
15341;DHT22;7770;52.158;5.372;2023-04-24T15:23:43;10.80;99.90
15341;DHT22;7770;52.158;5.372;2023-04-24T15:26:29;10.80;99.90
15341;DHT22;7770;52.158;5.372;2023-04-24T15:29:15;10.80;99.90
15341;DHT22;7770;52.158;5.372;2023-04-24T15:32:01;11.00;99.90
15341;DHT22;7770;52.158;5.372;2023-04-24T15:34:47;11.10;99.90
15341;DHT22;7770;52.158;5.372;2023-04-24T15:37:33;11.10;99.90
15341;DHT22;7770;52.158;5.372;2023-04-24T15:40:19;11.10;99.90
15341;DHT22;7770;52.158;5.372;2023-04-24T15:43:06;11.00;99.90
15341;DHT22;7770;52.158;5.372;2023-04-24T15:45:52;11.10;99.90
15341;DHT22;7770;52.158;5.372;2023-04-24T15:48:38;11.00;99.90
15341;DHT22;7770;52.158;5.372;2023-04-24T15:51:26;10.80;99.90
15341;DHT22;7770;52.158;5.372;2023-04-24T15:54:12;11.00;99.90
15341;DHT22;7770;52.158;5.372;2023-04-24T15:56:58;11.30;99.90
15341;DHT22;7770;52.158;5.372;2023-04-24T15:59:46;11.40;99.90
15341;DHT22;7770;52.158;5.372;2023-04-24T16:02:32;11.40;99.90
15341;DHT22;7770;52.158;5.372;2023-04-24T16:05:19;11.20;99.90
15341;DHT22;7770;52.158;5.372;2023-04-24T16:08:05;11.30;99.90
15341;DHT22;7770;52.158;5.372;2023-04-24T16:10:51;11.20;99.90
15341;DHT22;7770;52.158;5.372;2023-04-24T16:13:37;11.00;99.90
15341;DHT22;7770;52.158;5.372;2023-04-24T16:16:23;10.90;99.90
15341;DHT22;7770;52.158;5.372;2023-04-24T16:19:09;11.00;99.90
15341;DHT22;7770;52.158;5.372;2023-04-24T16:21:55;11.00;99.90
15341;DHT22;7770;52.158;5.372;2023-04-24T16:24:42;10.90;99.90
15341;DHT22;7770;52.158;5.372;2023-04-24T16:27:29;10.80;99.90
15341;DHT22;7770;52.158;5.372;2023-04-24T16:30:15;10.70;99.90
15341;DHT22;7770;52.158;5.372;2023-04-24T16:33:01;10.60;99.90
15341;DHT22;7770;52.158;5.372;2023-04-24T16:35:52;10.60;99.90
15341;DHT22;7770;52.158;5.372;2023-04-24T16:38:38;10.50;99.90
15341;DHT22;7770;52.158;5.372;2023-04-24T16:41:24;10.50;99.90
15341;DHT22;7770;52.158;5.372;2023-04-24T16:44:10;10.60;99.90
15341;DHT22;7770;52.158;5.372;2023-04-24T16:46:56;10.40;99.90
15341;DHT22;7770;52.158;5.372;2023-04-24T16:49:42;10.30;99.90
15341;DHT22;7770;52.158;5.372;2023-04-24T16:52:28;10.40;99.90
15341;DHT22;7770;52.158;5.372;2023-04-24T16:55:14;10.40;99.90
15341;DHT22;7770;52.158;5.372;2023-04-24T16:58:00;10.30;99.90
15341;DHT22;7770;52.158;5.372;2023-04-24T17:00:46;10.30;99.90
15341;DHT22;7770;52.158;5.372;2023-04-24T17:03:33;10.30;99.90
15341;DHT22;7770;52.158;5.372;2023-04-24T17:06:19;10.30;99.90
15341;DHT22;7770;52.158;5.372;2023-04-24T17:09:05;10.40;99.90
15341;DHT22;7770;52.158;5.372;2023-04-24T17:11:51;10.30;99.90
15341;DHT22;7770;52.158;5.372;2023-04-24T17:14:37;10.30;99.90
15341;DHT22;7770;52.158;5.372;2023-04-24T17:17:23;10.20;99.90
15341;DHT22;7770;52.158;5.372;2023-04-24T17:20:10;10.10;99.90
15341;DHT22;7770;52.158;5.372;2023-04-24T17:22:57;10.00;99.90
15341;DHT22;7770;52.158;5.372;2023-04-24T17:25:43;9.80;99.90
15341;DHT22;7770;52.158;5.372;2023-04-24T17:28:30;9.70;99.90
15341;DHT22;7770;52.158;5.372;2023-04-24T17:31:17;9.60;99.90
15341;DHT22;7770;52.158;5.372;2023-04-24T17:34:03;9.70;99.90
15341;DHT22;7770;52.158;5.372;2023-04-24T17:36:49;9.70;99.90
15341;DHT22;7770;52.158;5.372;2023-04-24T17:39:35;9.80;99.90
15341;DHT22;7770;52.158;5.372;2023-04-24T17:42:21;9.70;99.90
15341;DHT22;7770;52.158;5.372;2023-04-24T17:45:07;9.70;99.90
15341;DHT22;7770;52.158;5.372;2023-04-24T17:47:54;9.60;99.90
15341;DHT22;7770;52.158;5.372;2023-04-24T17:50:41;9.40;99.90
15341;DHT22;7770;52.158;5.372;2023-04-24T17:53:27;9.30;99.90
15341;DHT22;7770;52.158;5.372;2023-04-24T17:56:13;9.20;99.90
15341;DHT22;7770;52.158;5.372;2023-04-24T17:58:59;9.10;99.90
15341;DHT22;7770;52.158;5.372;2023-04-24T18:01:45;9.10;99.90
15341;DHT22;7770;52.158;5.372;2023-04-24T18:04:31;9.20;99.90
15341;DHT22;7770;52.158;5.372;2023-04-24T18:07:17;9.20;99.90
15341;DHT22;7770;52.158;5.372;2023-04-24T18:10:03;9.10;99.90